createdAt,value
2022-11-01T01:31:14.210Z,18.70
2022-11-01T01:36:11.077Z,14.30
2022-11-01T01:38:40.688Z,13.90
2022-11-01T01:41:26.057Z,13.80
2022-11-01T01:43:54.397Z,13.70
2022-11-01T01:46:22.782Z,13.60
2022-11-01T01:48:56.140Z,13.50
2022-11-01T01:51:28.132Z,13.40
2022-11-01T01:53:59.577Z,13.30
2022-11-01T01:56:33.441Z,13.30
2022-11-01T01:59:05.772Z,13.20
2022-11-01T02:01:36.950Z,13.10
2022-11-01T02:04:07.948Z,13.00
2022-11-01T02:06:36.906Z,13.00
2022-11-01T02:09:09.061Z,12.90
2022-11-01T02:11:37.404Z,12.90
2022-11-01T02:14:05.765Z,12.80
2022-11-01T02:16:53.762Z,12.80
2022-11-01T02:20:00.613Z,12.70
2022-11-01T02:22:52.687Z,12.60
2022-11-01T02:25:42.544Z,12.60
2022-11-01T02:28:31.129Z,12.60
2022-11-01T02:31:12.107Z,12.50
2022-11-01T02:33:46.413Z,12.50
2022-11-01T02:36:22.018Z,12.50
2022-11-01T02:38:53.776Z,12.50
2022-11-01T02:41:26.525Z,12.60
2022-11-01T02:43:57.230Z,12.60
2022-11-01T02:46:45.259Z,12.60
2022-11-01T02:49:18.657Z,12.70
2022-11-01T02:51:48.152Z,12.70
2022-11-01T02:54:22.566Z,12.80
2022-11-01T02:56:51.974Z,12.80
2022-11-01T02:59:25.489Z,12.90
2022-11-01T03:02:01.888Z,12.90
2022-11-01T03:04:32.137Z,13.00
2022-11-01T03:07:04.674Z,13.10
2022-11-01T03:09:34.644Z,13.10
2022-11-01T03:12:05.864Z,13.20
2022-11-01T03:14:41.756Z,13.20
2022-11-01T03:17:16.205Z,13.30
2022-11-01T03:19:51.116Z,13.30
2022-11-01T03:22:26.318Z,13.30
2022-11-01T03:25:05.184Z,13.40
2022-11-01T03:27:37.366Z,13.40
2022-11-01T03:30:08.101Z,13.40
2022-11-01T03:32:42.357Z,13.40
2022-11-01T03:35:17.449Z,13.40
2022-11-01T03:37:47.884Z,13.50
2022-11-01T03:40:19.205Z,13.40
2022-11-01T03:42:50.440Z,13.50
2022-11-01T03:47:52.647Z,13.50
2022-11-01T03:50:24.296Z,13.60
2022-11-01T03:52:53.110Z,13.60
2022-11-01T03:55:22.626Z,13.60
2022-11-01T03:57:51.886Z,13.70
2022-11-01T04:00:22.117Z,13.70
2022-11-01T04:02:51.242Z,13.70
2022-11-01T04:05:21.971Z,13.70
2022-11-01T04:07:51.511Z,13.80
2022-11-01T04:10:20.844Z,13.80
2022-11-01T04:12:50.494Z,13.90
2022-11-01T04:15:46.237Z,13.90
2022-11-01T04:18:34.554Z,13.90
2022-11-01T04:21:07.463Z,13.90
2022-11-01T04:23:36.329Z,14.00
2022-11-01T04:26:06.465Z,14.00
2022-11-01T04:28:34.849Z,14.10
2022-11-01T04:31:03.426Z,14.00
2022-11-01T04:33:31.590Z,14.20
2022-11-01T04:35:59.951Z,14.10
2022-11-01T04:38:29.525Z,14.10
2022-11-01T04:40:57.678Z,14.10
2022-11-01T04:43:26.099Z,14.10
2022-11-01T04:45:58.307Z,14.10
2022-11-01T04:48:27.623Z,14.10
2022-11-01T04:50:56.074Z,14.10
2022-11-01T04:53:24.255Z,14.10
2022-11-01T04:55:53.822Z,14.10
2022-11-01T04:58:21.980Z,14.10
2022-11-01T05:00:50.531Z,14.20
2022-11-01T05:03:18.740Z,14.20
2022-11-01T05:05:46.888Z,14.20
2022-11-01T05:08:15.471Z,14.30
2022-11-01T05:10:45.365Z,14.30
2022-11-01T05:13:15.037Z,14.30
2022-11-01T05:15:59.279Z,14.30
2022-11-01T05:18:31.371Z,14.40
2022-11-01T05:20:59.577Z,14.40
2022-11-01T05:23:27.735Z,14.40
2022-11-01T05:25:55.879Z,14.40
2022-11-01T05:28:25.456Z,14.40
2022-11-01T05:30:53.679Z,14.40
2022-11-01T05:33:21.849Z,14.40
2022-11-01T05:35:50.123Z,14.40
2022-11-01T05:38:18.274Z,14.40
2022-11-01T05:40:46.453Z,14.40
2022-11-01T05:43:14.766Z,14.40
2022-11-01T05:45:44.302Z,14.40
2022-11-01T05:48:12.503Z,14.40
2022-11-01T05:50:40.727Z,14.40
2022-11-01T05:53:10.358Z,14.40
2022-11-01T05:55:39.359Z,14.40
2022-11-01T05:58:08.167Z,14.40
2022-11-01T06:00:36.609Z,14.40
2022-11-01T06:03:07.196Z,14.40
2022-11-01T06:05:35.826Z,14.40
2022-11-01T06:08:04.583Z,14.40
2022-11-01T06:10:33.191Z,14.40
2022-11-01T06:13:01.982Z,14.40
2022-11-01T06:15:33.158Z,14.40
2022-11-01T06:18:05.769Z,14.40
2022-11-01T06:20:34.848Z,14.40
2022-11-01T06:23:03.024Z,14.40
2022-11-01T06:25:31.260Z,14.40
2022-11-01T06:27:59.752Z,14.40
2022-11-01T06:30:28.085Z,14.40
2022-11-01T06:33:01.623Z,14.40
2022-11-01T06:35:31.607Z,14.30
2022-11-01T06:38:03.568Z,14.40
2022-11-01T06:40:31.765Z,14.40
2022-11-01T06:43:02.756Z,14.50
2022-11-01T06:45:31.813Z,14.50
2022-11-01T06:48:00.596Z,14.50
2022-11-01T06:50:29.111Z,14.60
2022-11-01T06:52:59.489Z,14.60
2022-11-01T06:55:28.540Z,14.70
2022-11-01T06:57:58.368Z,14.80
2022-11-01T07:00:28.624Z,14.80
2022-11-01T07:03:01.311Z,14.90
2022-11-01T07:05:32.943Z,15.00
2022-11-01T07:08:07.093Z,15.00
2022-11-01T07:10:36.895Z,15.10
2022-11-01T07:13:07.436Z,15.10
2022-11-01T07:15:35.938Z,15.20
2022-11-01T07:18:06.627Z,15.40
2022-11-01T07:20:41.342Z,15.30
2022-11-01T07:23:14.329Z,15.30
2022-11-01T07:25:43.053Z,15.40
2022-11-01T07:28:11.712Z,15.40
2022-11-01T07:30:40.424Z,15.50
2022-11-01T07:33:08.691Z,15.50
2022-11-01T07:35:37.246Z,15.60
2022-11-01T07:38:09.746Z,15.60
2022-11-01T07:40:42.526Z,15.70
2022-11-01T07:43:11.123Z,15.70
2022-11-01T07:45:39.395Z,15.70
2022-11-01T07:48:10.440Z,15.80
2022-11-01T07:50:40.364Z,15.80
2022-11-01T07:53:10.777Z,15.80
2022-11-01T07:55:39.348Z,15.80
2022-11-01T07:58:10.056Z,15.80
2022-11-01T08:00:38.940Z,15.90
2022-11-01T08:03:08.741Z,15.90
2022-11-01T08:05:37.844Z,15.90
2022-11-01T08:08:07.059Z,15.90
2022-11-01T08:10:36.949Z,15.90
2022-11-01T08:13:06.199Z,16.00
2022-11-01T08:15:36.090Z,16.00
2022-11-01T08:18:04.920Z,16.10
2022-11-01T08:20:33.499Z,16.10
2022-11-01T08:23:02.037Z,16.10
2022-11-01T08:25:30.744Z,16.10
2022-11-01T08:28:02.939Z,16.10
2022-11-01T08:30:31.124Z,16.20
2022-11-01T08:33:02.039Z,16.10
2022-11-01T08:35:31.340Z,16.10
2022-11-01T08:37:59.641Z,16.10
2022-11-01T08:40:29.114Z,16.10
2022-11-01T08:42:57.748Z,16.10
2022-11-01T08:45:26.297Z,16.10
2022-11-01T08:47:59.268Z,16.10
2022-11-01T08:50:29.636Z,16.10
2022-11-01T08:52:57.814Z,16.20
2022-11-01T08:55:26.524Z,16.20
2022-11-01T08:57:54.798Z,16.20
2022-11-01T09:00:23.171Z,16.20
2022-11-01T09:02:51.461Z,16.30
2022-11-01T09:05:19.923Z,16.30
2022-11-01T09:07:49.817Z,16.30
2022-11-01T09:55:03.428Z,16.40
2022-11-01T10:31:02.662Z,17.00
2022-11-01T10:33:34.394Z,17.50
2022-11-01T10:36:06.475Z,17.50
2022-11-01T10:51:33.525Z,17.50
2022-11-01T10:54:05.829Z,17.70
2022-11-01T10:56:38.146Z,17.70
2022-11-01T10:59:12.383Z,17.70
2022-11-01T11:01:44.351Z,17.70
2022-11-01T11:04:16.233Z,17.70
2022-11-01T11:06:44.839Z,17.80
2022-11-01T11:09:23.522Z,17.80
2022-11-01T11:11:52.581Z,17.80
2022-11-01T11:14:22.212Z,17.80
2022-11-01T11:16:55.705Z,17.80
2022-11-01T11:19:32.497Z,17.80
2022-11-01T11:22:02.587Z,17.90
2022-11-01T11:24:34.642Z,17.80
2022-11-01T11:27:04.436Z,17.90
2022-11-01T11:29:39.144Z,17.90
2022-11-01T11:32:15.948Z,17.90
2022-11-01T11:34:44.429Z,17.90
2022-11-01T11:37:22.771Z,17.90
2022-11-01T11:40:19.191Z,18.00
2022-11-01T11:42:49.807Z,18.00
2022-11-01T11:45:22.641Z,18.00
2022-11-01T11:47:52.690Z,18.00
2022-11-01T11:50:32.413Z,18.00
2022-11-01T11:53:06.469Z,18.10
2022-11-01T11:55:42.080Z,18.10
2022-11-01T11:58:24.358Z,18.10
2022-11-01T12:00:59.351Z,18.10
2022-11-01T12:03:30.098Z,18.10
2022-11-01T12:06:01.403Z,18.10
2022-11-01T12:08:46.215Z,18.10
2022-11-01T12:11:15.488Z,18.10
2022-11-01T12:13:45.962Z,18.10
2022-11-01T12:16:24.661Z,18.10
2022-11-01T12:18:56.967Z,18.10
2022-11-01T12:21:28.533Z,18.10
2022-11-01T12:24:01.411Z,18.10
2022-11-01T12:26:32.578Z,18.10
2022-11-01T12:29:08.725Z,18.10
2022-11-01T12:31:39.443Z,18.20
2022-11-01T12:34:19.638Z,18.20
2022-11-01T12:36:55.127Z,18.30
2022-11-01T12:39:44.272Z,18.30
2022-11-01T12:42:19.128Z,18.40
2022-11-01T12:44:52.577Z,18.40
2022-11-01T12:47:25.876Z,18.40
2022-11-01T12:49:59.362Z,18.50
2022-11-01T12:52:33.613Z,18.50
2022-11-01T12:55:07.822Z,18.60
2022-11-01T12:57:37.485Z,18.60
2022-11-01T13:00:07.598Z,18.60
2022-11-01T13:02:56.903Z,18.50
2022-11-01T13:05:34.936Z,18.60
2022-11-01T13:08:11.880Z,18.60
2022-11-01T13:10:44.826Z,18.60
2022-11-01T13:13:22.603Z,18.60
2022-11-01T13:16:02.154Z,18.60
2022-11-01T13:18:43.872Z,18.60
2022-11-01T13:21:20.364Z,18.60
2022-11-01T13:23:53.874Z,18.50
2022-11-01T13:26:27.449Z,18.50
2022-11-01T13:29:07.710Z,18.50
2022-11-01T13:31:53.739Z,18.50
2022-11-01T13:34:41.120Z,18.50
2022-11-01T13:37:21.893Z,18.40
2022-11-01T13:40:05.890Z,18.40
2022-11-01T13:42:38.857Z,18.40
2022-11-01T13:45:33.161Z,18.40
2022-11-01T13:48:09.606Z,18.30
2022-11-01T13:50:55.333Z,18.30
2022-11-01T13:53:32.341Z,18.30
2022-11-01T13:56:05.575Z,18.30
2022-11-01T13:58:33.906Z,18.20
2022-11-01T14:01:30.992Z,18.20
2022-11-01T14:04:29.927Z,18.20
2022-11-01T14:07:15.307Z,18.20
2022-11-01T14:09:49.516Z,18.20
2022-11-01T14:12:43.386Z,18.20
2022-11-01T14:15:24.854Z,18.20
2022-11-01T14:18:07.844Z,18.20
2022-11-01T14:21:01.777Z,18.20
2022-11-01T14:24:01.725Z,18.20
2022-11-01T14:27:05.666Z,18.20
2022-11-01T14:29:36.604Z,18.20
2022-11-01T14:32:05.426Z,18.20
2022-11-01T14:34:36.589Z,18.20
2022-11-01T14:37:16.700Z,18.20
2022-11-01T14:39:52.806Z,18.20
2022-11-01T14:42:27.300Z,18.20
2022-11-01T14:44:59.978Z,18.20
2022-11-01T14:47:35.658Z,18.20
2022-11-01T14:50:15.268Z,18.20
2022-11-01T14:52:48.301Z,18.20
2022-11-01T14:55:21.856Z,18.20
2022-11-01T14:57:51.929Z,18.10
2022-11-01T15:00:26.739Z,18.10
2022-11-01T15:02:55.543Z,18.10
2022-11-01T15:05:24.787Z,18.10
2022-11-01T15:07:54.873Z,18.10
2022-11-01T15:10:23.623Z,18.10
2022-11-01T15:12:57.739Z,18.10
2022-11-01T15:15:28.949Z,18.10
2022-11-01T15:17:58.877Z,18.00
2022-11-01T15:20:30.087Z,18.00
2022-11-01T15:23:00.425Z,18.00
2022-11-01T15:25:28.844Z,18.00
2022-11-01T15:27:58.847Z,18.00
2022-11-01T15:30:30.187Z,18.00
2022-11-01T15:33:17.067Z,18.00
2022-11-01T15:35:53.536Z,17.90
2022-11-01T15:38:22.180Z,17.90
2022-11-01T15:40:52.228Z,17.90
2022-11-01T15:43:23.159Z,17.90
2022-11-01T15:45:54.883Z,17.80
2022-11-01T15:48:25.934Z,17.80
2022-11-01T15:50:58.598Z,17.80
2022-11-01T15:53:30.695Z,17.80
2022-11-01T15:56:03.015Z,17.70
2022-11-01T15:58:39.608Z,17.70
2022-11-01T16:01:14.116Z,17.70
2022-11-01T16:03:46.061Z,17.60
2022-11-01T16:06:18.643Z,17.60
2022-11-01T16:08:51.845Z,17.60
2022-11-01T16:11:22.601Z,17.50
2022-11-01T16:13:56.940Z,17.50
2022-11-01T16:16:25.136Z,17.50
2022-11-01T17:09:30.643Z,17.40
2022-11-01T17:11:58.787Z,17.20
2022-11-01T17:14:28.559Z,17.10
2022-11-01T17:16:57.371Z,17.10
2022-11-01T17:19:29.675Z,17.20
2022-11-01T17:21:59.399Z,17.20
2022-11-01T17:24:28.417Z,17.10
2022-11-01T17:27:00.764Z,17.20
2022-11-01T17:29:30.423Z,17.20
2022-11-01T17:31:58.949Z,17.20
2022-11-01T17:34:28.956Z,17.10
2022-11-01T17:36:58.368Z,17.10
2022-11-01T17:39:29.285Z,17.10
2022-11-01T17:41:57.455Z,17.10
2022-11-01T17:44:25.642Z,17.10
2022-11-01T17:46:55.237Z,17.10
2022-11-01T17:49:24.614Z,17.10
2022-11-01T17:51:54.876Z,17.10
2022-11-01T17:54:23.503Z,17.10
2022-11-01T17:56:52.081Z,17.10
2022-11-01T17:59:20.447Z,17.10
2022-11-01T18:01:48.756Z,17.10
2022-11-01T18:04:18.469Z,17.10
2022-11-01T18:06:46.636Z,17.00
2022-11-01T18:09:22.863Z,17.00
2022-11-01T18:12:00.037Z,17.00
2022-11-01T18:14:47.394Z,17.00
2022-11-01T18:17:31.690Z,17.00
2022-11-01T18:30:14.803Z,17.00
2022-11-01T18:32:48.783Z,16.90
2022-11-01T18:35:31.625Z,16.90
2022-11-01T18:38:25.954Z,16.90
2022-11-01T18:41:00.203Z,16.90
2022-11-01T18:43:31.830Z,16.80
2022-11-01T18:48:49.050Z,16.80
2022-11-01T18:51:26.522Z,16.80
2022-11-01T18:53:59.644Z,16.80
2022-11-01T18:56:28.012Z,16.80
2022-11-01T18:58:58.769Z,16.80
2022-11-01T19:01:32.428Z,16.70
2022-11-01T19:04:03.633Z,16.70
2022-11-01T19:06:34.149Z,16.70
2022-11-01T19:09:14.469Z,16.70
2022-11-01T19:11:42.980Z,16.60
2022-11-01T19:14:16.686Z,16.60
2022-11-01T19:16:45.603Z,16.60
2022-11-01T19:19:18.786Z,16.60
2022-11-01T19:21:48.863Z,16.60
2022-11-01T19:24:31.079Z,16.60
2022-11-01T19:27:00.054Z,16.50
2022-11-01T19:29:32.210Z,16.50
2022-11-01T19:32:03.271Z,16.50
2022-11-01T19:34:35.817Z,16.50
2022-11-01T19:37:14.301Z,16.50
2022-11-01T19:39:42.528Z,16.40
2022-11-01T19:42:19.382Z,16.40
2022-11-01T19:44:47.791Z,16.40
2022-11-01T19:47:39.300Z,16.40
2022-11-01T19:50:21.268Z,16.40
2022-11-01T19:52:52.477Z,16.40
2022-11-01T19:55:43.775Z,16.40
2022-11-01T19:58:39.071Z,16.40
2022-11-01T20:01:41.907Z,16.40
2022-11-01T20:04:27.628Z,16.40
2022-11-01T20:07:01.071Z,16.40
2022-11-01T20:09:31.748Z,16.40
2022-11-01T20:11:59.961Z,16.40
2022-11-01T20:14:28.182Z,16.50
2022-11-01T20:16:56.495Z,16.40
2022-11-01T20:19:24.662Z,16.40
2022-11-01T20:21:52.863Z,16.40
2022-11-01T20:24:21.116Z,16.40
2022-11-01T20:26:50.745Z,16.40
2022-11-01T20:29:19.064Z,16.40
2022-11-01T20:31:47.846Z,16.50
2022-11-01T20:34:16.054Z,16.40
2022-11-01T20:36:46.793Z,16.40
2022-11-01T20:39:24.198Z,16.40
2022-11-01T20:41:54.672Z,16.40
2022-11-01T20:44:23.208Z,16.40
2022-11-01T20:46:51.341Z,16.40
2022-11-01T20:49:19.590Z,16.40
2022-11-01T20:51:47.758Z,16.40
2022-11-01T20:54:18.027Z,16.40
2022-11-01T20:56:46.426Z,16.40
2022-11-01T20:59:18.793Z,16.40
2022-11-01T21:01:50.147Z,16.40
2022-11-01T21:04:19.318Z,16.30
2022-11-01T21:06:47.515Z,16.30
2022-11-01T21:09:30.269Z,16.30
2022-11-01T21:11:58.978Z,16.30
2022-11-01T21:14:37.076Z,16.30
2022-11-01T21:17:15.025Z,16.30
2022-11-01T21:19:44.224Z,16.30
2022-11-01T21:34:55.576Z,16.30
2022-11-01T21:37:24.978Z,16.20
2022-11-01T21:40:01.562Z,16.20
